createdAt,value
2023-03-28T00:01:10.010Z,100.00
2023-03-28T00:03:42.701Z,100.00
2023-03-28T00:06:16.683Z,100.00
2023-03-28T00:08:47.790Z,100.00
2023-03-28T00:11:20.467Z,100.00
2023-03-28T00:13:58.502Z,100.00
2023-03-28T00:16:32.765Z,100.00
2023-03-28T00:19:11.935Z,100.00
2023-03-28T00:21:47.285Z,100.00
2023-03-28T00:24:18.096Z,100.00
2023-03-28T00:26:49.709Z,100.00
2023-03-28T00:29:21.402Z,100.00
2023-03-28T00:31:51.128Z,100.00
2023-03-28T00:34:19.605Z,100.00
2023-03-28T00:36:47.918Z,100.00
2023-03-28T00:39:16.881Z,100.00
2023-03-28T00:41:45.666Z,100.00
2023-03-28T00:44:51.088Z,100.00
2023-03-28T00:47:28.562Z,100.00
2023-03-28T00:50:27.639Z,100.00
2023-03-28T00:53:26.911Z,100.00
2023-03-28T00:56:08.701Z,100.00
2023-03-28T00:58:42.586Z,100.00
2023-03-28T01:01:14.261Z,100.00
2023-03-28T01:03:46.584Z,100.00
2023-03-28T01:06:16.617Z,100.00
2023-03-28T01:08:47.269Z,100.00
2023-03-28T01:11:17.951Z,100.00
2023-03-28T01:13:50.243Z,100.00
2023-03-28T01:16:21.272Z,100.00
2023-03-28T01:18:53.395Z,100.00
2023-03-28T01:21:54.075Z,100.00
2023-03-28T01:24:36.938Z,100.00
2023-03-28T01:27:26.300Z,100.00
2023-03-28T01:30:42.640Z,100.00
2023-03-28T01:33:57.503Z,100.00
2023-03-28T01:36:46.331Z,100.00
2023-03-28T01:39:43.569Z,100.00
2023-03-28T01:42:30.770Z,100.00
2023-03-28T01:45:20.671Z,100.00
2023-03-28T01:47:58.023Z,100.00
2023-03-28T01:50:33.044Z,100.00
2023-03-28T01:53:44.600Z,100.00
2023-03-28T01:56:51.027Z,100.00
2023-03-28T01:59:42.138Z,100.00
2023-03-28T02:02:44.088Z,100.00
2023-03-28T02:05:28.097Z,100.00
2023-03-28T02:07:58.677Z,100.00
2023-03-28T02:10:42.013Z,100.00
2023-03-28T02:13:49.310Z,100.00
2023-03-28T02:16:50.264Z,100.00
2023-03-28T02:19:39.027Z,100.00
2023-03-28T02:22:20.000Z,100.00
2023-03-28T02:24:54.535Z,100.00
2023-03-28T02:27:46.629Z,100.00
2023-03-28T02:30:34.620Z,100.00
2023-03-28T02:33:09.811Z,100.00
2023-03-28T02:36:17.225Z,100.00
2023-03-28T02:38:46.211Z,100.00
2023-03-28T02:41:34.643Z,100.00
2023-03-28T02:44:15.272Z,100.00
2023-03-28T02:46:56.167Z,100.00
2023-03-28T02:49:29.931Z,100.00
2023-03-28T02:52:09.587Z,100.00
2023-03-28T02:54:53.101Z,100.00
2023-03-28T02:57:37.840Z,100.00
2023-03-28T03:00:13.115Z,100.00
2023-03-28T03:02:49.414Z,100.00
2023-03-28T03:05:23.134Z,100.00
2023-03-28T03:07:52.438Z,100.00
2023-03-28T03:10:22.249Z,100.00
2023-03-28T03:12:50.747Z,100.00
2023-03-28T03:15:19.084Z,100.00
2023-03-28T03:17:58.944Z,100.00
2023-03-28T03:20:34.352Z,100.00
2023-03-28T03:23:04.171Z,100.00
2023-03-28T03:25:35.076Z,100.00
2023-03-28T03:28:13.384Z,100.00
2023-03-28T03:30:42.123Z,100.00
2023-03-28T03:33:48.833Z,100.00
2023-03-28T03:36:19.035Z,100.00
2023-03-28T03:38:47.738Z,100.00
2023-03-28T03:41:20.562Z,100.00
2023-03-28T03:43:50.056Z,100.00
2023-03-28T03:46:18.639Z,100.00
2023-03-28T03:48:49.697Z,100.00
2023-03-28T03:51:19.030Z,100.00
2023-03-28T03:53:53.559Z,100.00
2023-03-28T03:56:26.079Z,100.00
2023-03-28T03:58:57.494Z,100.00
2023-03-28T04:01:32.822Z,100.00
2023-03-28T04:04:21.659Z,100.00
2023-03-28T04:07:15.817Z,100.00
2023-03-28T04:09:44.261Z,100.00
2023-03-28T04:12:12.779Z,100.00
2023-03-28T04:14:48.672Z,100.00
2023-03-28T04:17:36.386Z,100.00
2023-03-28T04:20:12.268Z,100.00
2023-03-28T04:22:56.679Z,100.00
2023-03-28T04:25:25.207Z,100.00
2023-03-28T04:27:54.858Z,100.00
2023-03-28T04:30:26.084Z,100.00
2023-03-28T04:33:30.348Z,100.00
2023-03-28T04:36:03.440Z,100.00
2023-03-28T04:38:36.491Z,100.00
2023-03-28T04:41:40.363Z,100.00
2023-03-28T04:44:24.120Z,100.00
2023-03-28T04:47:00.179Z,100.00
2023-03-28T04:49:28.421Z,100.00
2023-03-28T04:51:56.866Z,100.00
2023-03-28T04:54:25.131Z,100.00
2023-03-28T04:57:13.112Z,100.00
2023-03-28T04:59:45.379Z,100.00
2023-03-28T05:02:33.912Z,100.00
2023-03-28T05:05:04.101Z,100.00
2023-03-28T05:07:32.562Z,100.00
2023-03-28T05:10:01.608Z,100.00
2023-03-28T05:12:35.059Z,100.00
2023-03-28T05:15:06.524Z,100.00
2023-03-28T05:17:41.326Z,100.00
2023-03-28T05:20:21.402Z,100.00
2023-03-28T05:22:53.417Z,100.00
2023-03-28T05:25:22.140Z,100.00
2023-03-28T05:27:51.613Z,100.00
2023-03-28T05:30:19.975Z,100.00
2023-03-28T05:32:52.034Z,100.00
2023-03-28T05:35:20.523Z,100.00
2023-03-28T05:37:51.652Z,100.00
2023-03-28T05:40:20.401Z,100.00
2023-03-28T05:42:48.647Z,100.00
2023-03-28T05:45:18.189Z,100.00
2023-03-28T05:47:57.882Z,100.00
2023-03-28T05:50:26.505Z,100.00
2023-03-28T05:53:00.030Z,100.00
2023-03-28T05:55:28.428Z,100.00
2023-03-28T05:57:57.794Z,100.00
2023-03-28T06:00:29.066Z,100.00
2023-03-28T06:02:58.237Z,100.00
2023-03-28T06:05:36.674Z,100.00
2023-03-28T06:08:09.659Z,100.00
2023-03-28T06:10:38.649Z,100.00
2023-03-28T06:13:20.806Z,100.00
2023-03-28T06:15:49.501Z,100.00
2023-03-28T06:18:18.530Z,100.00
2023-03-28T06:20:48.111Z,100.00
2023-03-28T06:23:16.852Z,100.00
2023-03-28T06:25:45.648Z,100.00
2023-03-28T06:28:15.847Z,100.00
2023-03-28T06:31:03.443Z,100.00
2023-03-28T06:33:31.932Z,100.00
2023-03-28T06:36:00.166Z,100.00
2023-03-28T06:38:30.728Z,100.00
2023-03-28T06:40:59.085Z,100.00
2023-03-28T06:43:27.625Z,100.00
2023-03-28T06:46:08.629Z,100.00
2023-03-28T06:48:39.950Z,100.00
2023-03-28T06:51:31.186Z,100.00
2023-03-28T06:53:59.412Z,100.00
2023-03-28T06:56:29.500Z,100.00
2023-03-28T06:58:58.704Z,100.00
2023-03-28T07:01:28.321Z,100.00
2023-03-28T07:04:13.143Z,100.00
2023-03-28T07:06:42.598Z,100.00
2023-03-28T07:09:10.867Z,100.00
2023-03-28T07:11:45.426Z,100.00
2023-03-28T07:14:13.872Z,100.00
2023-03-28T07:16:42.526Z,100.00
2023-03-28T07:19:11.835Z,100.00
2023-03-28T07:21:42.773Z,100.00
2023-03-28T07:24:11.046Z,100.00
2023-03-28T07:27:13.971Z,100.00
2023-03-28T07:29:43.659Z,100.00
2023-03-28T07:32:13.454Z,100.00
2023-03-28T07:34:44.927Z,100.00
2023-03-28T07:37:18.296Z,100.00
2023-03-28T07:40:07.194Z,100.00
2023-03-28T07:42:35.472Z,100.00
2023-03-28T07:45:03.974Z,100.00
2023-03-28T07:47:32.185Z,100.00
2023-03-28T07:50:00.383Z,100.00
2023-03-28T07:52:29.679Z,100.00
2023-03-28T07:54:57.982Z,100.00
2023-03-28T07:57:26.878Z,100.00
2023-03-28T07:59:59.741Z,100.00
2023-03-28T08:02:28.254Z,100.00
2023-03-28T08:04:56.743Z,100.00
2023-03-28T08:07:27.276Z,100.00
2023-03-28T08:09:58.404Z,100.00
2023-03-28T08:12:32.070Z,100.00
2023-03-28T08:15:00.409Z,100.00
2023-03-28T08:17:29.427Z,100.00
2023-03-28T08:19:58.089Z,100.00
2023-03-28T08:22:29.359Z,100.00
2023-03-28T08:25:20.720Z,100.00
2023-03-28T08:27:49.923Z,100.00
2023-03-28T08:30:18.091Z,100.00
2023-03-28T08:32:53.430Z,100.00
2023-03-28T08:35:21.998Z,100.00
2023-03-28T08:37:52.863Z,100.00
2023-03-28T08:40:21.389Z,100.00
2023-03-28T08:42:57.382Z,100.00
2023-03-28T08:45:40.076Z,100.00
2023-03-28T08:48:11.601Z,100.00
2023-03-28T08:50:46.084Z,100.00
2023-03-28T08:53:26.862Z,100.00
2023-03-28T08:55:57.758Z,100.00
2023-03-28T08:58:31.948Z,100.00
2023-03-28T09:01:00.442Z,100.00
2023-03-28T09:03:37.091Z,100.00
2023-03-28T09:06:29.692Z,100.00
2023-03-28T09:09:08.971Z,100.00
2023-03-28T09:12:01.391Z,100.00
2023-03-28T09:14:30.239Z,100.00
2023-03-28T09:17:07.691Z,100.00
2023-03-28T09:19:48.633Z,100.00
2023-03-28T09:23:16.322Z,99.93
2023-03-28T09:26:28.719Z,96.00
2023-03-28T09:29:11.660Z,94.63
2023-03-28T09:31:45.978Z,90.74
2023-03-28T09:34:27.836Z,92.89
2023-03-28T09:37:07.188Z,91.10
2023-03-28T09:39:42.543Z,87.60
2023-03-28T09:42:29.865Z,81.65
2023-03-28T09:45:37.439Z,80.55
2023-03-28T09:48:29.663Z,79.84
2023-03-28T09:51:02.529Z,80.14
2023-03-28T09:53:33.516Z,78.47
2023-03-28T09:56:13.331Z,76.96
2023-03-28T09:58:52.340Z,73.55
2023-03-28T10:01:59.381Z,67.10
2023-03-28T10:04:45.898Z,62.07
2023-03-28T10:07:32.403Z,61.18
2023-03-28T10:10:22.052Z,61.01
2023-03-28T10:13:02.528Z,59.37
2023-03-28T10:15:41.454Z,60.09
2023-03-28T10:18:21.347Z,58.04
2023-03-28T10:21:18.883Z,58.24
2023-03-28T10:24:15.815Z,56.60
2023-03-28T10:26:48.994Z,58.19
2023-03-28T10:29:18.193Z,57.18
2023-03-28T10:31:50.439Z,57.73
2023-03-28T10:34:31.800Z,56.65
2023-03-28T10:37:32.061Z,56.45
2023-03-28T10:40:19.286Z,55.17
2023-03-28T10:43:13.998Z,52.77
2023-03-28T10:46:13.239Z,52.67
2023-03-28T10:49:00.014Z,53.14
2023-03-28T10:51:31.652Z,54.67
2023-03-28T10:54:06.213Z,55.80
2023-03-28T10:56:44.915Z,56.10
2023-03-28T10:59:28.459Z,54.83
2023-03-28T11:02:09.138Z,54.12
2023-03-28T11:04:56.189Z,53.79
2023-03-28T11:07:33.961Z,52.77
2023-03-28T11:10:18.918Z,52.41
2023-03-28T11:13:22.070Z,50.83
2023-03-28T11:16:06.290Z,47.41
2023-03-28T11:19:00.955Z,46.78
2023-03-28T11:22:22.182Z,47.03
2023-03-28T11:25:08.779Z,46.14
2023-03-28T11:28:16.446Z,46.42
2023-03-28T11:30:52.927Z,46.97
2023-03-28T11:33:43.568Z,48.11
2023-03-28T11:36:22.803Z,47.26
2023-03-28T11:39:20.350Z,45.47
2023-03-28T11:41:51.960Z,45.24
2023-03-28T11:44:43.887Z,47.70
2023-03-28T11:47:21.938Z,46.80
2023-03-28T11:50:08.345Z,47.07
2023-03-28T11:53:04.667Z,45.56
2023-03-28T11:55:44.829Z,44.06
2023-03-28T11:58:26.310Z,43.28
2023-03-28T12:01:14.367Z,43.68
2023-03-28T12:04:02.283Z,43.08
2023-03-28T12:06:37.408Z,41.76
2023-03-28T12:09:22.799Z,40.83
2023-03-28T12:12:01.154Z,40.65
2023-03-28T12:14:48.193Z,40.51
2023-03-28T12:17:31.922Z,41.01
2023-03-28T12:20:00.678Z,40.52
2023-03-28T12:22:41.106Z,39.87
2023-03-28T12:25:41.743Z,41.12
2023-03-28T12:28:32.358Z,40.23
2023-03-28T12:31:11.019Z,39.51
2023-03-28T12:34:01.380Z,38.31
2023-03-28T12:37:23.718Z,39.38
2023-03-28T12:40:13.156Z,39.40
2023-03-28T12:42:45.454Z,38.37
2023-03-28T12:45:20.884Z,38.33
2023-03-28T12:47:54.541Z,37.84
2023-03-28T12:50:34.312Z,38.01
2023-03-28T12:53:03.037Z,38.71
2023-03-28T12:55:37.717Z,37.78
2023-03-28T12:58:46.951Z,37.74
2023-03-28T13:01:34.974Z,35.57
2023-03-28T13:04:43.824Z,34.60
2023-03-28T13:07:35.880Z,33.69
2023-03-28T13:10:26.367Z,33.49
2023-03-28T13:13:19.877Z,34.12
2023-03-28T13:16:13.758Z,33.44
2023-03-28T13:19:04.030Z,33.24
2023-03-28T13:21:46.438Z,33.99
2023-03-28T13:24:27.394Z,34.99
2023-03-28T13:27:00.127Z,36.75
2023-03-28T13:29:45.602Z,36.35
2023-03-28T13:32:17.513Z,36.95
2023-03-28T13:34:52.898Z,38.34
2023-03-28T13:37:43.691Z,39.12
2023-03-28T13:40:41.364Z,37.97
2023-03-28T13:43:35.989Z,38.28
2023-03-28T13:46:24.388Z,37.33
2023-03-28T13:49:07.030Z,37.32
2023-03-28T13:52:08.289Z,37.86
2023-03-28T13:54:36.798Z,37.68
2023-03-28T13:57:08.532Z,37.57
2023-03-28T13:59:49.771Z,37.60
2023-03-28T14:02:41.693Z,38.38
2023-03-28T14:05:26.533Z,39.02
2023-03-28T14:08:01.827Z,39.11
2023-03-28T14:10:35.360Z,37.58
2023-03-28T14:13:08.480Z,37.47
2023-03-28T14:15:42.308Z,37.99
2023-03-28T14:18:17.411Z,38.69
2023-03-28T14:20:47.627Z,39.29
2023-03-28T14:23:29.380Z,40.78
2023-03-28T14:26:01.293Z,42.26
2023-03-28T14:28:30.904Z,42.29
2023-03-28T14:30:59.846Z,41.87
2023-03-28T14:33:37.845Z,40.27
2023-03-28T14:36:06.758Z,39.50
2023-03-28T14:38:38.485Z,37.69
2023-03-28T14:41:27.664Z,38.20
2023-03-28T14:43:59.148Z,39.48
2023-03-28T14:46:30.184Z,40.04
2023-03-28T14:49:01.491Z,40.49
2023-03-28T14:51:40.243Z,40.68
2023-03-28T14:54:26.148Z,40.14
2023-03-28T14:56:57.590Z,40.32
2023-03-28T14:59:37.324Z,41.32
2023-03-28T15:02:06.806Z,41.79
2023-03-28T15:04:36.253Z,41.72
2023-03-28T15:07:04.777Z,42.34
2023-03-28T15:09:34.807Z,42.25
2023-03-28T15:12:09.262Z,42.07
2023-03-28T15:14:44.234Z,42.41
2023-03-28T15:17:19.695Z,42.51
2023-03-28T15:19:54.540Z,42.59
2023-03-28T15:22:27.885Z,42.76
2023-03-28T15:24:58.269Z,43.71
2023-03-28T15:27:36.381Z,44.01
2023-03-28T15:30:16.291Z,44.87
2023-03-28T15:32:45.290Z,45.82
2023-03-28T15:35:30.917Z,46.00
2023-03-28T15:38:17.284Z,46.41
2023-03-28T15:40:48.357Z,46.80
2023-03-28T15:43:56.217Z,46.74
2023-03-28T15:46:31.650Z,46.84
2023-03-28T15:49:02.349Z,46.39
2023-03-28T15:51:31.805Z,46.94
2023-03-28T15:54:00.564Z,46.71
2023-03-28T15:56:32.257Z,46.75
2023-03-28T15:59:03.579Z,46.94
2023-03-28T16:01:33.395Z,46.72
2023-03-28T16:04:29.016Z,46.44
2023-03-28T16:07:13.785Z,46.99
2023-03-28T16:09:43.519Z,47.06
2023-03-28T16:12:14.505Z,47.29
2023-03-28T16:14:49.307Z,47.87
2023-03-28T16:17:25.848Z,48.20
2023-03-28T16:20:20.337Z,48.27
2023-03-28T16:22:49.953Z,48.57
2023-03-28T16:25:18.253Z,49.14
2023-03-28T16:27:46.491Z,49.25
2023-03-28T16:30:20.744Z,49.45
2023-03-28T16:32:49.039Z,49.28
2023-03-28T16:35:17.305Z,49.62
2023-03-28T16:37:45.651Z,50.06
2023-03-28T16:40:15.194Z,50.27
2023-03-28T16:42:43.480Z,50.41
2023-03-28T16:45:13.085Z,50.72
2023-03-28T16:47:42.329Z,51.03
2023-03-28T16:50:10.877Z,51.74
2023-03-28T16:52:40.695Z,52.63
2023-03-28T16:55:12.058Z,53.14
2023-03-28T16:57:40.524Z,53.02
2023-03-28T17:00:12.386Z,52.88
2023-03-28T17:02:41.714Z,52.50
2023-03-28T17:05:10.304Z,51.95
2023-03-28T17:07:39.081Z,51.96
2023-03-28T17:10:08.925Z,51.78
2023-03-28T17:12:37.445Z,52.00
2023-03-28T17:15:06.982Z,52.11
2023-03-28T17:17:35.348Z,52.50
2023-03-28T17:20:05.119Z,52.44
2023-03-28T17:22:33.406Z,53.12
2023-03-28T17:25:03.095Z,53.52
2023-03-28T17:27:34.758Z,54.02
2023-03-28T17:30:04.900Z,54.47
2023-03-28T17:32:35.430Z,54.28
2023-03-28T17:35:04.218Z,54.51
2023-03-28T17:37:32.578Z,54.81
2023-03-28T17:40:00.847Z,55.07
2023-03-28T17:42:29.022Z,55.61
2023-03-28T17:44:58.543Z,55.99
2023-03-28T17:47:27.166Z,56.59
2023-03-28T17:49:57.238Z,57.04
2023-03-28T17:52:27.399Z,58.00
2023-03-28T17:54:58.126Z,58.62
2023-03-28T17:57:27.726Z,59.23
2023-03-28T17:59:56.119Z,59.56
2023-03-28T18:02:25.205Z,59.85
2023-03-28T18:04:59.361Z,60.40
2023-03-28T18:07:29.400Z,60.85
2023-03-28T18:10:01.214Z,61.48
2023-03-28T18:12:29.969Z,61.85
2023-03-28T18:15:01.188Z,62.95
2023-03-28T18:17:31.122Z,64.36
2023-03-28T18:19:59.700Z,66.00
2023-03-28T18:22:29.295Z,67.67
2023-03-28T18:24:58.317Z,69.03
2023-03-28T18:27:27.851Z,69.94
2023-03-28T18:29:56.673Z,70.18
2023-03-28T18:32:25.059Z,70.34
2023-03-28T18:34:53.514Z,72.13
2023-03-28T18:37:22.114Z,73.41
2023-03-28T18:39:50.787Z,74.37
2023-03-28T18:42:20.034Z,75.10
2023-03-28T18:44:48.908Z,75.86
2023-03-28T18:47:17.744Z,77.18
2023-03-28T18:49:46.573Z,77.90
2023-03-28T18:52:15.696Z,79.09
2023-03-28T18:54:46.998Z,79.94
2023-03-28T18:57:16.267Z,80.73
2023-03-28T18:59:45.767Z,81.38
2023-03-28T19:02:14.238Z,82.93
2023-03-28T19:04:42.562Z,84.66
2023-03-28T19:07:10.936Z,85.21
2023-03-28T19:09:39.230Z,85.82
2023-03-28T19:12:07.844Z,87.19
2023-03-28T19:14:36.474Z,88.20
2023-03-28T19:17:05.483Z,88.75
2023-03-28T19:19:37.568Z,89.43
2023-03-28T19:22:06.697Z,90.70
2023-03-28T19:24:34.938Z,92.77
2023-03-28T19:27:05.081Z,94.58
2023-03-28T19:29:33.733Z,96.48
2023-03-28T19:32:01.887Z,99.39
2023-03-28T19:34:30.045Z,100.00
2023-03-28T19:36:58.684Z,100.00
2023-03-28T19:39:27.092Z,100.00
2023-03-28T19:41:56.109Z,100.00
2023-03-28T19:44:24.504Z,100.00
2023-03-28T19:46:52.720Z,100.00
2023-03-28T19:49:20.876Z,100.00
2023-03-28T19:51:49.039Z,100.00
2023-03-28T19:54:17.269Z,100.00
2023-03-28T19:56:46.157Z,100.00
2023-03-28T19:59:15.164Z,100.00
2023-03-28T20:01:43.453Z,100.00
2023-03-28T20:04:12.467Z,100.00
2023-03-28T20:06:41.112Z,100.00
2023-03-28T20:09:09.446Z,100.00
2023-03-28T20:11:42.245Z,100.00
2023-03-28T20:14:10.773Z,100.00
2023-03-28T20:16:39.260Z,100.00
2023-03-28T20:19:07.736Z,100.00
2023-03-28T20:21:36.072Z,100.00
2023-03-28T20:24:04.577Z,100.00
2023-03-28T20:26:33.211Z,100.00
2023-03-28T20:29:01.806Z,100.00
2023-03-28T20:31:30.130Z,100.00
2023-03-28T20:33:58.525Z,100.00
2023-03-28T20:36:27.288Z,100.00
2023-03-28T20:38:56.060Z,100.00
2023-03-28T20:41:24.734Z,100.00
2023-03-28T20:43:53.388Z,100.00
2023-03-28T20:46:22.397Z,100.00
2023-03-28T20:48:53.225Z,100.00
2023-03-28T20:51:22.861Z,100.00
2023-03-28T20:53:57.300Z,100.00
2023-03-28T20:56:27.965Z,100.00
2023-03-28T20:58:58.965Z,100.00
2023-03-28T21:01:30.419Z,100.00
2023-03-28T21:04:01.723Z,100.00
2023-03-28T21:06:34.702Z,100.00
2023-03-28T21:09:06.946Z,100.00
2023-03-28T21:11:37.717Z,100.00
2023-03-28T21:14:07.732Z,100.00
2023-03-28T21:16:37.660Z,100.00
2023-03-28T21:19:06.422Z,100.00
2023-03-28T21:21:34.727Z,100.00
2023-03-28T21:24:04.157Z,100.00
2023-03-28T21:26:32.711Z,100.00
2023-03-28T21:29:00.963Z,100.00
2023-03-28T21:31:29.999Z,100.00
2023-03-28T21:33:59.254Z,100.00
2023-03-28T21:36:28.641Z,100.00
2023-03-28T21:38:57.226Z,100.00
2023-03-28T21:41:27.569Z,100.00
2023-03-28T21:43:56.981Z,100.00
2023-03-28T21:46:25.850Z,100.00
2023-03-28T21:48:54.185Z,100.00
2023-03-28T21:51:22.476Z,100.00
2023-03-28T21:53:51.062Z,100.00
2023-03-28T21:56:19.267Z,100.00
2023-03-28T21:58:49.255Z,100.00
2023-03-28T22:01:18.637Z,100.00
2023-03-28T22:03:47.872Z,100.00
2023-03-28T22:06:17.710Z,100.00
2023-03-28T22:08:49.074Z,100.00
2023-03-28T22:11:20.023Z,100.00
2023-03-28T22:13:48.137Z,100.00
2023-03-28T22:16:16.383Z,100.00
2023-03-28T22:18:50.214Z,100.00
2023-03-28T22:21:18.573Z,100.00
2023-03-28T22:23:49.535Z,100.00
2023-03-28T22:26:18.465Z,100.00
2023-03-28T22:28:46.788Z,100.00
2023-03-28T22:31:17.162Z,100.00
2023-03-28T22:33:45.469Z,100.00
2023-03-28T22:36:13.879Z,100.00
2023-03-28T22:38:42.105Z,100.00
2023-03-28T22:41:11.404Z,100.00
2023-03-28T22:43:42.986Z,100.00
2023-03-28T22:46:12.988Z,100.00
2023-03-28T22:48:42.255Z,100.00
2023-03-28T22:51:15.993Z,100.00
2023-03-28T22:53:44.159Z,100.00
2023-03-28T22:56:12.616Z,100.00
2023-03-28T22:58:41.434Z,100.00
2023-03-28T23:01:09.952Z,100.00
2023-03-28T23:03:38.329Z,100.00
2023-03-28T23:06:07.002Z,100.00
2023-03-28T23:08:35.348Z,100.00
2023-03-28T23:11:03.833Z,100.00
2023-03-28T23:13:32.483Z,100.00
2023-03-28T23:16:01.461Z,100.00
2023-03-28T23:18:31.166Z,100.00
2023-03-28T23:20:59.543Z,100.00
2023-03-28T23:23:27.965Z,100.00
2023-03-28T23:25:56.094Z,100.00
2023-03-28T23:28:24.344Z,100.00
2023-03-28T23:30:52.494Z,100.00
2023-03-28T23:33:21.141Z,100.00
2023-03-28T23:35:49.588Z,100.00
2023-03-28T23:38:17.859Z,100.00
2023-03-28T23:40:46.632Z,100.00
2023-03-28T23:43:15.128Z,100.00
2023-03-28T23:45:43.843Z,100.00
2023-03-28T23:48:12.148Z,100.00
2023-03-28T23:50:40.689Z,100.00
2023-03-28T23:53:09.658Z,100.00
2023-03-28T23:55:37.819Z,100.00
2023-03-28T23:58:05.999Z,100.00
